createdAt,value
2019-02-20T00:00:42.116Z,66
2019-02-20T00:01:41.977Z,66
2019-02-20T00:02:42.017Z,66
2019-02-20T00:03:42.000Z,66
2019-02-20T00:04:42.010Z,66
2019-02-20T00:05:42.040Z,66
2019-02-20T00:06:42.081Z,66
2019-02-20T00:07:42.060Z,67
2019-02-20T00:08:42.077Z,66
2019-02-20T00:09:42.067Z,66
2019-02-20T00:10:42.069Z,66
2019-02-20T00:12:07.754Z,66
2019-02-20T00:12:42.096Z,66
2019-02-20T00:13:42.131Z,66
2019-02-20T00:14:42.109Z,66
2019-02-20T00:15:42.120Z,66
2019-02-20T00:16:42.138Z,66
2019-02-20T00:17:42.169Z,66
2019-02-20T00:18:42.136Z,66
2019-02-20T00:19:42.129Z,66
2019-02-20T00:20:42.148Z,65
2019-02-20T00:21:42.192Z,65
2019-02-20T00:22:42.203Z,65
2019-02-20T00:23:42.153Z,65
2019-02-20T00:24:42.210Z,65
2019-02-20T00:25:42.228Z,65
2019-02-20T00:26:42.201Z,65
2019-02-20T00:27:42.194Z,65
2019-02-20T00:28:42.238Z,65
2019-02-20T00:29:42.209Z,65
2019-02-20T00:30:42.499Z,65
2019-02-20T00:31:42.318Z,65
2019-02-20T00:32:42.329Z,65
2019-02-20T00:33:42.339Z,65
2019-02-20T00:34:42.309Z,66
2019-02-20T00:35:42.334Z,66
2019-02-20T00:36:42.391Z,66
2019-02-20T00:37:42.321Z,66
2019-02-20T00:38:42.370Z,66
2019-02-20T00:39:42.349Z,66
2019-02-20T00:40:42.353Z,66
2019-02-20T00:41:42.410Z,66
2019-02-20T00:42:42.391Z,66
2019-02-20T00:43:42.384Z,66
2019-02-20T00:44:42.394Z,66
2019-02-20T00:45:42.399Z,65
2019-02-20T00:46:42.408Z,66
2019-02-20T00:47:42.426Z,66
2019-02-20T00:48:43.506Z,66
2019-02-20T00:49:42.407Z,66
2019-02-20T00:50:42.410Z,66
2019-02-20T00:51:42.417Z,66
2019-02-20T00:52:49.548Z,66
2019-02-20T00:53:42.467Z,67
2019-02-20T00:54:42.486Z,66
2019-02-20T00:55:42.448Z,66
2019-02-20T00:56:42.512Z,67
2019-02-20T00:57:42.512Z,67
2019-02-20T00:58:42.495Z,67
2019-02-20T00:59:42.527Z,67
2019-02-20T01:00:42.535Z,67
2019-02-20T01:01:42.511Z,67
2019-02-20T01:02:42.533Z,67
2019-02-20T01:03:42.569Z,66
2019-02-20T01:04:42.573Z,67
2019-02-20T01:05:42.548Z,67
2019-02-20T01:06:45.242Z,67
2019-02-20T01:07:42.585Z,67
2019-02-20T01:08:42.594Z,67
2019-02-20T01:09:42.592Z,67
2019-02-20T01:10:42.597Z,67
2019-02-20T01:11:42.610Z,67
2019-02-20T01:12:42.614Z,67
2019-02-20T01:13:42.654Z,67
2019-02-20T01:14:42.666Z,68
2019-02-20T01:15:42.605Z,68
2019-02-20T01:16:42.636Z,68
2019-02-20T01:17:42.645Z,68
2019-02-20T01:18:42.665Z,68
2019-02-20T01:19:42.638Z,68
2019-02-20T01:20:42.715Z,68
2019-02-20T01:21:42.665Z,68
2019-02-20T01:22:42.680Z,68
2019-02-20T01:23:42.701Z,68
2019-02-20T01:24:42.778Z,68
2019-02-20T01:25:42.704Z,68
2019-02-20T01:26:42.735Z,68
2019-02-20T01:27:42.748Z,68
2019-02-20T01:28:42.754Z,68
2019-02-20T01:29:42.811Z,68
2019-02-20T01:30:42.827Z,68
2019-02-20T01:31:42.764Z,68
2019-02-20T01:32:42.774Z,69
2019-02-20T01:33:42.784Z,69
2019-02-20T01:34:42.806Z,69
2019-02-20T01:35:42.874Z,69
2019-02-20T01:36:42.819Z,69
2019-02-20T01:37:42.795Z,68
2019-02-20T01:38:42.857Z,70
2019-02-20T01:39:42.850Z,69
2019-02-20T01:40:42.885Z,69
2019-02-20T01:41:42.829Z,69
2019-02-20T01:42:42.884Z,70
2019-02-20T01:43:42.839Z,70
2019-02-20T01:44:42.968Z,70
2019-02-20T01:45:42.865Z,70
2019-02-20T01:46:42.988Z,70
2019-02-20T01:47:42.953Z,70
2019-02-20T01:48:43.055Z,70
2019-02-20T01:49:42.942Z,69
2019-02-20T01:50:42.933Z,70
2019-02-20T01:51:44.911Z,70
2019-02-20T01:52:42.980Z,70
2019-02-20T01:53:42.967Z,70
2019-02-20T01:54:43.022Z,70
2019-02-20T01:55:43.017Z,70
2019-02-20T01:56:42.991Z,70
2019-02-20T01:57:43.011Z,70
2019-02-20T01:58:43.088Z,70
2019-02-20T01:59:43.125Z,70
2019-02-20T02:00:43.141Z,70
2019-02-20T02:01:43.050Z,70
2019-02-20T02:02:43.062Z,70
2019-02-20T02:03:43.054Z,70
2019-02-20T02:04:43.102Z,70
2019-02-20T02:05:43.076Z,70
2019-02-20T02:06:44.185Z,70
2019-02-20T02:07:43.058Z,70
2019-02-20T02:08:43.076Z,70
2019-02-20T02:09:43.088Z,70
2019-02-20T02:10:44.154Z,70
2019-02-20T02:11:43.179Z,70
2019-02-20T02:12:43.130Z,70
2019-02-20T02:13:43.136Z,70
2019-02-20T02:14:43.188Z,70
2019-02-20T02:15:43.151Z,70
2019-02-20T02:16:43.281Z,70
2019-02-20T02:17:43.283Z,70
2019-02-20T02:18:43.222Z,70
2019-02-20T02:19:43.195Z,70
2019-02-20T02:20:43.215Z,70
2019-02-20T02:21:43.205Z,70
2019-02-20T02:22:43.382Z,70
2019-02-20T02:23:43.320Z,70
2019-02-20T02:24:43.260Z,70
2019-02-20T02:25:43.250Z,70
2019-02-20T02:26:43.290Z,71
2019-02-20T02:27:43.296Z,71
2019-02-20T02:28:43.278Z,71
2019-02-20T02:29:43.301Z,71
2019-02-20T02:30:43.285Z,71
2019-02-20T02:31:43.303Z,71
2019-02-20T02:32:43.315Z,71
2019-02-20T02:33:43.270Z,71
2019-02-20T02:34:43.391Z,70
2019-02-20T02:35:43.291Z,71
2019-02-20T02:36:43.302Z,70
2019-02-20T02:37:43.393Z,71
2019-02-20T02:38:43.333Z,71
2019-02-20T02:39:43.475Z,71
2019-02-20T02:40:43.366Z,70
2019-02-20T02:41:44.804Z,71
2019-02-20T02:42:43.394Z,71
2019-02-20T02:43:43.352Z,71
2019-02-20T02:44:43.464Z,70
2019-02-20T02:45:43.417Z,71
2019-02-20T02:46:43.411Z,70
2019-02-20T02:47:43.483Z,71
2019-02-20T02:48:43.518Z,71
2019-02-20T02:49:43.434Z,71
2019-02-20T02:50:43.474Z,71
2019-02-20T02:51:43.472Z,71
2019-02-20T02:52:43.514Z,71
2019-02-20T02:53:43.433Z,71
2019-02-20T02:54:43.498Z,71
2019-02-20T02:55:43.658Z,71
2019-02-20T02:56:43.454Z,71
2019-02-20T02:57:43.577Z,71
2019-02-20T02:58:43.468Z,71
2019-02-20T02:59:43.495Z,71
2019-02-20T03:00:43.642Z,71
2019-02-20T03:01:43.478Z,71
2019-02-20T03:02:43.478Z,71
2019-02-20T03:03:43.462Z,71
2019-02-20T03:04:43.534Z,71
2019-02-20T03:05:43.535Z,72
2019-02-20T03:06:43.493Z,72
2019-02-20T03:07:43.489Z,72
2019-02-20T03:08:43.515Z,72
2019-02-20T03:09:43.546Z,72
2019-02-20T03:10:43.609Z,72
2019-02-20T03:11:43.527Z,72
2019-02-20T03:12:43.541Z,72
2019-02-20T03:13:43.540Z,72
2019-02-20T03:14:43.576Z,72
2019-02-20T03:15:43.593Z,71
2019-02-20T03:16:43.557Z,72
2019-02-20T03:17:43.537Z,72
2019-02-20T03:18:44.560Z,72
2019-02-20T03:19:43.595Z,72
2019-02-20T03:20:43.579Z,72
2019-02-20T03:21:43.549Z,72
2019-02-20T03:22:43.597Z,72
2019-02-20T03:23:43.569Z,72
2019-02-20T03:24:43.622Z,72
2019-02-20T03:25:43.603Z,72
2019-02-20T03:26:43.598Z,72
2019-02-20T03:27:43.583Z,72
2019-02-20T03:28:43.651Z,72
2019-02-20T03:29:43.663Z,72
2019-02-20T03:30:43.785Z,72
2019-02-20T03:31:43.638Z,72
2019-02-20T03:32:43.626Z,72
2019-02-20T03:33:43.602Z,72
2019-02-20T03:34:43.632Z,71
2019-02-20T03:35:43.629Z,72
2019-02-20T03:36:43.628Z,72
2019-02-20T03:37:43.658Z,72
2019-02-20T03:38:43.742Z,72
2019-02-20T03:39:43.672Z,72
2019-02-20T03:40:43.686Z,72
2019-02-20T03:41:43.697Z,72
2019-02-20T03:42:43.656Z,72
2019-02-20T03:43:43.672Z,72
2019-02-20T03:44:43.711Z,72
2019-02-20T03:45:43.679Z,72
2019-02-20T03:46:43.739Z,73
2019-02-20T03:47:43.697Z,73
2019-02-20T03:48:43.773Z,73
2019-02-20T03:49:43.791Z,73
2019-02-20T03:50:43.773Z,73
2019-02-20T03:51:43.735Z,73
2019-02-20T03:52:43.764Z,73
2019-02-20T03:53:51.094Z,73
2019-02-20T03:54:43.976Z,72
2019-02-20T03:55:44.084Z,73
2019-02-20T03:56:43.799Z,73
2019-02-20T03:57:43.813Z,74
2019-02-20T03:58:43.835Z,74
2019-02-20T03:59:43.813Z,74
2019-02-20T04:00:43.905Z,74
2019-02-20T04:01:43.849Z,74
2019-02-20T04:02:43.852Z,74
2019-02-20T04:03:43.847Z,74
2019-02-20T04:04:43.994Z,75
2019-02-20T04:05:43.883Z,75
2019-02-20T04:06:43.870Z,76
2019-02-20T04:07:43.862Z,75
2019-02-20T04:08:43.876Z,75
2019-02-20T04:09:43.881Z,75
2019-02-20T04:10:44.006Z,75
2019-02-20T04:11:44.359Z,75
2019-02-20T04:12:44.015Z,75
2019-02-20T04:13:43.924Z,75
2019-02-20T04:14:43.940Z,74
2019-02-20T04:15:43.956Z,74
2019-02-20T04:16:44.002Z,74
2019-02-20T04:17:43.989Z,74
2019-02-20T04:18:44.009Z,75
2019-02-20T04:19:44.030Z,75
2019-02-20T04:20:49.106Z,75
2019-02-20T04:21:44.080Z,75
2019-02-20T04:22:44.062Z,75
2019-02-20T04:23:44.086Z,75
2019-02-20T04:24:44.087Z,75
2019-02-20T04:25:44.044Z,75
2019-02-20T04:26:44.082Z,75
2019-02-20T04:27:44.107Z,75
2019-02-20T04:28:44.224Z,74
2019-02-20T04:29:44.083Z,74
2019-02-20T04:30:44.122Z,74
2019-02-20T04:31:44.218Z,75
2019-02-20T04:32:44.113Z,75
2019-02-20T04:33:44.112Z,76
2019-02-20T04:34:44.172Z,76
2019-02-20T04:35:44.121Z,76
2019-02-20T04:36:44.113Z,77
2019-02-20T04:37:44.115Z,76
2019-02-20T04:38:44.291Z,76
2019-02-20T04:39:44.209Z,76
2019-02-20T04:40:49.177Z,76
2019-02-20T04:41:44.154Z,76
2019-02-20T04:42:44.234Z,75
2019-02-20T04:43:44.225Z,75
2019-02-20T04:44:45.669Z,75
2019-02-20T04:45:44.299Z,75
2019-02-20T04:46:44.196Z,75
2019-02-20T04:47:44.210Z,75
2019-02-20T04:48:44.266Z,75
2019-02-20T04:49:44.293Z,75
2019-02-20T04:50:44.286Z,75
2019-02-20T04:51:44.264Z,75
2019-02-20T04:52:44.270Z,74
2019-02-20T04:53:44.256Z,74
2019-02-20T04:54:44.265Z,74
2019-02-20T04:55:44.303Z,74
2019-02-20T04:56:44.289Z,74
2019-02-20T04:57:44.284Z,74
2019-02-20T04:58:44.292Z,74
2019-02-20T04:59:44.281Z,74
2019-02-20T05:00:44.311Z,74
2019-02-20T05:01:44.398Z,74
2019-02-20T05:02:44.326Z,73
2019-02-20T05:03:44.325Z,73
2019-02-20T05:04:44.433Z,73
2019-02-20T05:05:45.427Z,73
2019-02-20T05:06:44.405Z,73
2019-02-20T05:07:44.392Z,73
2019-02-20T05:08:44.375Z,73
2019-02-20T05:09:44.488Z,73
2019-02-20T05:10:44.408Z,73
2019-02-20T05:11:44.457Z,73
2019-02-20T05:12:44.428Z,73
2019-02-20T05:13:44.480Z,74
2019-02-20T05:14:44.433Z,74
2019-02-20T05:15:44.428Z,74
2019-02-20T05:16:44.445Z,74
2019-02-20T05:17:44.472Z,74
2019-02-20T05:18:44.508Z,74
2019-02-20T05:19:44.528Z,74
2019-02-20T05:20:44.494Z,74
2019-02-20T05:21:44.486Z,74
2019-02-20T05:22:44.481Z,74
2019-02-20T05:23:44.473Z,74
2019-02-20T05:24:44.549Z,74
2019-02-20T05:25:44.591Z,74
2019-02-20T05:26:44.557Z,73
2019-02-20T05:27:44.537Z,73
2019-02-20T05:28:44.566Z,74
2019-02-20T05:29:44.636Z,74
2019-02-20T05:30:44.630Z,74
2019-02-20T05:31:44.574Z,74
2019-02-20T05:32:44.572Z,74
2019-02-20T05:33:44.579Z,74
2019-02-20T05:34:44.646Z,74
2019-02-20T05:35:44.638Z,75
2019-02-20T05:36:44.689Z,75
2019-02-20T05:37:44.756Z,75
2019-02-20T05:38:44.643Z,75
2019-02-20T05:39:44.668Z,75
2019-02-20T05:40:44.713Z,74
2019-02-20T05:41:44.700Z,74
2019-02-20T05:42:44.691Z,74
2019-02-20T05:43:44.675Z,74
2019-02-20T05:44:44.890Z,74
2019-02-20T05:45:44.698Z,74
2019-02-20T05:46:44.722Z,74
2019-02-20T05:47:44.661Z,74
2019-02-20T05:48:44.730Z,74
2019-02-20T05:49:44.719Z,74
2019-02-20T05:50:44.781Z,74
2019-02-20T05:51:44.750Z,73
2019-02-20T05:52:44.779Z,73
2019-02-20T05:53:44.777Z,73
2019-02-20T05:54:44.770Z,73
2019-02-20T05:55:44.776Z,74
2019-02-20T05:56:44.816Z,73
2019-02-20T05:57:44.788Z,73
2019-02-20T05:58:44.816Z,74
2019-02-20T05:59:44.841Z,74
2019-02-20T06:00:44.843Z,74
2019-02-20T06:01:45.064Z,74
2019-02-20T06:02:44.847Z,74
2019-02-20T06:03:44.928Z,74
2019-02-20T06:04:44.837Z,75
2019-02-20T06:05:44.954Z,75
2019-02-20T06:06:44.880Z,75
2019-02-20T06:07:44.910Z,74
2019-02-20T06:08:44.887Z,74
2019-02-20T06:09:44.883Z,74
2019-02-20T06:10:44.898Z,74
2019-02-20T06:11:44.955Z,74
2019-02-20T06:12:44.903Z,74
2019-02-20T06:13:44.908Z,74
2019-02-20T06:14:44.913Z,74
2019-02-20T06:15:44.973Z,74
2019-02-20T06:16:44.999Z,74
2019-02-20T06:17:44.990Z,74
2019-02-20T06:18:44.988Z,74
2019-02-20T06:19:44.995Z,73
2019-02-20T06:20:45.053Z,73
2019-02-20T06:21:45.061Z,73
2019-02-20T06:22:45.071Z,72
2019-02-20T06:23:45.027Z,73
2019-02-20T06:24:45.103Z,73
2019-02-20T06:25:45.199Z,73
2019-02-20T06:26:45.074Z,73
2019-02-20T06:27:45.108Z,73
2019-02-20T06:28:45.086Z,73
2019-02-20T06:29:45.148Z,73
2019-02-20T06:30:45.130Z,73
2019-02-20T06:31:45.101Z,72
2019-02-20T06:32:45.108Z,72
2019-02-20T06:33:45.104Z,72
2019-02-20T06:34:45.121Z,71
2019-02-20T06:35:45.165Z,72
2019-02-20T06:36:45.161Z,72
2019-02-20T06:37:45.120Z,72
2019-02-20T06:38:45.136Z,72
2019-02-20T06:39:45.210Z,71
2019-02-20T06:40:45.131Z,71
2019-02-20T06:41:45.216Z,71
2019-02-20T06:42:45.201Z,71
2019-02-20T06:43:45.199Z,71
2019-02-20T06:44:45.194Z,71
2019-02-20T06:45:45.257Z,70
2019-02-20T06:46:45.221Z,70
2019-02-20T06:47:45.295Z,70
2019-02-20T06:48:45.271Z,71
2019-02-20T06:49:45.250Z,71
2019-02-20T06:50:45.302Z,71
2019-02-20T06:51:45.328Z,70
2019-02-20T06:52:45.293Z,70
2019-02-20T06:53:45.312Z,70
2019-02-20T06:54:53.452Z,70
2019-02-20T06:55:45.324Z,70
2019-02-20T06:56:45.312Z,70
2019-02-20T06:57:45.422Z,70
2019-02-20T06:58:45.320Z,70
2019-02-20T06:59:46.389Z,70
2019-02-20T07:00:45.374Z,70
2019-02-20T07:01:45.391Z,69
2019-02-20T07:02:45.350Z,69
2019-02-20T07:03:45.361Z,70
2019-02-20T07:04:45.385Z,70
2019-02-20T07:05:45.383Z,69
2019-02-20T07:06:45.682Z,69
2019-02-20T07:07:45.407Z,69
2019-02-20T07:08:45.415Z,69
2019-02-20T07:09:45.511Z,69
2019-02-20T07:10:45.484Z,69
2019-02-20T07:11:45.458Z,68
2019-02-20T07:12:45.601Z,68
2019-02-20T07:13:45.460Z,68
2019-02-20T07:14:45.471Z,68
2019-02-20T07:15:45.475Z,68
2019-02-20T07:16:45.531Z,68
2019-02-20T07:17:45.562Z,68
2019-02-20T07:18:45.544Z,68
2019-02-20T07:19:45.534Z,68
2019-02-20T07:20:45.560Z,68
2019-02-20T07:21:45.605Z,68
2019-02-20T07:22:45.521Z,68
2019-02-20T07:23:45.556Z,67
2019-02-20T07:24:45.555Z,68
2019-02-20T07:25:45.599Z,68
2019-02-20T07:26:45.586Z,68
2019-02-20T07:27:45.555Z,69
2019-02-20T07:28:45.618Z,68
2019-02-20T07:29:45.564Z,68
2019-02-20T07:30:45.618Z,68
2019-02-20T07:31:45.618Z,67
2019-02-20T07:32:45.649Z,68
2019-02-20T07:33:45.631Z,68
2019-02-20T07:34:45.632Z,68
2019-02-20T07:35:45.655Z,68
2019-02-20T07:36:45.693Z,68
2019-02-20T07:37:45.754Z,68
2019-02-20T07:38:45.677Z,67
2019-02-20T07:39:45.691Z,66
2019-02-20T07:40:45.715Z,67
2019-02-20T07:41:45.697Z,67
2019-02-20T07:42:45.768Z,67
2019-02-20T07:43:45.763Z,67
2019-02-20T07:44:45.733Z,67
2019-02-20T07:45:45.727Z,67
2019-02-20T07:46:45.798Z,67
2019-02-20T07:47:46.803Z,66
2019-02-20T07:48:45.792Z,67
2019-02-20T07:49:45.786Z,66
2019-02-20T07:50:45.775Z,67
2019-02-20T07:51:45.770Z,67
2019-02-20T07:52:45.786Z,67
2019-02-20T07:53:45.854Z,66
2019-02-20T07:54:45.788Z,67
2019-02-20T07:55:45.821Z,67
2019-02-20T07:56:45.873Z,67
2019-02-20T07:57:45.859Z,66
2019-02-20T07:58:45.905Z,66
2019-02-20T07:59:45.871Z,66
2019-02-20T08:00:46.031Z,66
2019-02-20T08:01:45.931Z,66
2019-02-20T08:02:45.890Z,66
2019-02-20T08:03:45.943Z,65
2019-02-20T08:04:45.989Z,65
2019-02-20T08:05:45.999Z,65
2019-02-20T08:06:45.980Z,65
2019-02-20T08:07:45.945Z,66
2019-02-20T08:08:46.054Z,65
2019-02-20T08:09:46.053Z,65
2019-02-20T08:10:45.988Z,65
2019-02-20T08:11:46.000Z,66
2019-02-20T08:12:46.015Z,66
2019-02-20T08:13:45.998Z,66
2019-02-20T08:14:51.018Z,65
2019-02-20T08:15:46.029Z,64
2019-02-20T08:16:52.165Z,64
2019-02-20T08:17:46.017Z,65
2019-02-20T08:18:46.024Z,65
2019-02-20T08:19:46.063Z,65
2019-02-20T08:20:46.031Z,65
2019-02-20T08:21:46.021Z,64
2019-02-20T08:22:46.041Z,64
2019-02-20T08:23:46.049Z,64
2019-02-20T08:24:46.120Z,64
2019-02-20T08:25:46.065Z,64
2019-02-20T08:26:46.076Z,64
2019-02-20T08:27:46.100Z,64
2019-02-20T08:28:46.092Z,64
2019-02-20T08:29:46.159Z,64
2019-02-20T08:30:46.168Z,64
2019-02-20T08:31:46.109Z,65
2019-02-20T08:32:46.135Z,64
2019-02-20T08:33:46.159Z,64
2019-02-20T08:34:46.240Z,64
2019-02-20T08:35:46.174Z,63
2019-02-20T08:36:46.186Z,63
2019-02-20T08:37:46.191Z,63
2019-02-20T08:38:46.217Z,63
2019-02-20T08:39:46.228Z,63
2019-02-20T08:40:46.221Z,63
2019-02-20T08:41:46.224Z,63
2019-02-20T08:42:46.225Z,63
2019-02-20T08:43:46.229Z,62
2019-02-20T08:44:46.243Z,63
2019-02-20T08:45:46.318Z,63
2019-02-20T08:46:46.231Z,63
2019-02-20T08:47:46.223Z,63
2019-02-20T08:48:46.253Z,62
2019-02-20T08:49:46.250Z,62
2019-02-20T08:50:46.296Z,62
2019-02-20T08:51:46.311Z,62
2019-02-20T08:52:46.471Z,62
2019-02-20T08:53:46.302Z,62
2019-02-20T08:54:46.563Z,62
2019-02-20T08:55:46.317Z,62
2019-02-20T08:56:46.416Z,62
2019-02-20T08:57:46.370Z,62
2019-02-20T08:58:46.328Z,63
2019-02-20T08:59:46.346Z,62
2019-02-20T09:00:46.349Z,62
2019-02-20T09:01:46.346Z,62
2019-02-20T09:02:46.418Z,61
2019-02-20T09:03:46.411Z,61
2019-02-20T09:04:46.407Z,60
2019-02-20T09:05:46.381Z,60
2019-02-20T09:06:46.379Z,60
2019-02-20T09:07:46.385Z,60
2019-02-20T09:08:46.433Z,60
2019-02-20T09:09:46.418Z,60
2019-02-20T09:10:46.397Z,61
2019-02-20T09:11:46.406Z,60
2019-02-20T09:12:46.401Z,60
2019-02-20T09:13:46.467Z,60
2019-02-20T09:14:46.449Z,60
2019-02-20T09:15:46.410Z,61
2019-02-20T09:16:46.418Z,60
2019-02-20T09:17:46.431Z,61
2019-02-20T09:18:46.473Z,60
2019-02-20T09:19:46.468Z,61
2019-02-20T09:20:46.451Z,61
2019-02-20T09:21:46.476Z,60
2019-02-20T09:22:46.439Z,60
2019-02-20T09:23:46.456Z,61
2019-02-20T09:24:46.515Z,61
2019-02-20T09:25:46.472Z,61
2019-02-20T09:26:46.465Z,61
2019-02-20T09:27:46.473Z,61
2019-02-20T09:28:46.489Z,60
2019-02-20T09:29:46.555Z,60
2019-02-20T09:30:46.530Z,60
2019-02-20T09:31:46.487Z,59
2019-02-20T09:32:46.504Z,59
2019-02-20T09:33:46.529Z,60
2019-02-20T09:34:46.509Z,60
2019-02-20T09:35:46.533Z,59
2019-02-20T09:36:46.533Z,59
2019-02-20T09:37:46.524Z,59
2019-02-20T09:38:46.534Z,59
2019-02-20T09:39:46.562Z,59
2019-02-20T09:40:46.604Z,58
2019-02-20T09:41:46.551Z,59
2019-02-20T09:42:46.545Z,58
2019-02-20T09:43:46.567Z,58
2019-02-20T09:44:46.555Z,58
2019-02-20T09:45:46.621Z,58
2019-02-20T09:46:46.602Z,58
2019-02-20T09:47:46.598Z,58
2019-02-20T09:48:46.617Z,58
2019-02-20T09:49:46.601Z,57
2019-02-20T09:50:47.744Z,58
2019-02-20T09:51:46.640Z,58
2019-02-20T09:52:52.153Z,58
2019-02-20T09:53:46.643Z,58
2019-02-20T09:54:46.651Z,58
2019-02-20T09:55:51.434Z,58
2019-02-20T09:56:46.643Z,58
2019-02-20T09:57:46.711Z,58
2019-02-20T09:58:46.649Z,57
2019-02-20T09:59:46.643Z,57
2019-02-20T10:00:46.724Z,57
2019-02-20T10:01:46.660Z,57
2019-02-20T10:02:47.339Z,57
2019-02-20T10:03:46.690Z,57
2019-02-20T10:04:46.716Z,57
2019-02-20T10:05:46.766Z,57
2019-02-20T10:06:46.788Z,57
2019-02-20T10:07:46.760Z,57
2019-02-20T10:08:46.765Z,57
2019-02-20T10:09:46.802Z,56
2019-02-20T10:10:46.841Z,56
2019-02-20T10:11:46.803Z,56
2019-02-20T10:12:46.803Z,56
2019-02-20T10:13:46.848Z,56
2019-02-20T10:14:46.836Z,57
2019-02-20T10:15:46.815Z,56
2019-02-20T10:16:46.867Z,57
2019-02-20T10:17:46.852Z,57
2019-02-20T10:18:46.824Z,56
2019-02-20T10:19:46.854Z,56
2019-02-20T10:20:46.842Z,56
2019-02-20T10:21:46.866Z,56
2019-02-20T10:22:46.848Z,56
2019-02-20T10:23:46.873Z,56
2019-02-20T10:24:46.839Z,56
2019-02-20T10:25:46.888Z,56
2019-02-20T10:26:46.966Z,56
2019-02-20T10:27:46.926Z,56
2019-02-20T10:28:46.946Z,56
2019-02-20T10:29:46.945Z,55
2019-02-20T10:30:46.957Z,56
2019-02-20T10:31:47.714Z,55
2019-02-20T10:32:46.984Z,55
2019-02-20T10:33:46.990Z,55
2019-02-20T10:34:46.980Z,54
2019-02-20T10:35:46.991Z,55
2019-02-20T10:36:47.032Z,54
2019-02-20T10:37:47.018Z,54
2019-02-20T10:38:47.017Z,54
2019-02-20T10:39:47.008Z,54
2019-02-20T10:40:47.091Z,54
2019-02-20T10:41:47.025Z,54
2019-02-20T10:42:47.066Z,54
2019-02-20T10:43:47.070Z,54
2019-02-20T10:44:47.055Z,54
2019-02-20T10:45:47.085Z,54
2019-02-20T10:46:47.109Z,54
2019-02-20T10:47:47.095Z,53
2019-02-20T10:48:47.072Z,53
2019-02-20T10:49:47.076Z,53
2019-02-20T10:50:47.083Z,53
2019-02-20T10:51:47.118Z,53
2019-02-20T10:52:47.160Z,52
2019-02-20T10:53:47.156Z,52
2019-02-20T10:54:47.167Z,52
2019-02-20T10:55:47.172Z,52
2019-02-20T10:56:47.230Z,52
2019-02-20T10:57:47.176Z,52
2019-02-20T10:58:47.199Z,52
2019-02-20T10:59:47.207Z,52
2019-02-20T11:00:47.199Z,52
2019-02-20T11:01:47.191Z,51
2019-02-20T11:02:47.227Z,52
2019-02-20T11:03:47.238Z,52
2019-02-20T11:04:47.249Z,52
2019-02-20T11:05:47.318Z,51
2019-02-20T11:06:47.261Z,52
2019-02-20T11:07:47.272Z,52
2019-02-20T11:08:47.273Z,52
2019-02-20T11:09:47.252Z,51
2019-02-20T11:10:47.293Z,50
2019-02-20T11:11:47.300Z,50
2019-02-20T11:12:47.239Z,51
2019-02-20T11:13:47.263Z,51
2019-02-20T11:14:48.885Z,51
2019-02-20T11:15:47.303Z,51
2019-02-20T11:16:47.360Z,52
2019-02-20T11:17:47.356Z,52
2019-02-20T11:18:47.359Z,51
2019-02-20T11:19:47.373Z,51
2019-02-20T11:20:48.528Z,51
2019-02-20T11:21:47.366Z,52
2019-02-20T11:22:48.593Z,52
2019-02-20T11:23:47.435Z,52
2019-02-20T11:24:47.395Z,51
2019-02-20T11:25:47.401Z,51
2019-02-20T11:26:54.197Z,51
2019-02-20T11:27:47.431Z,50
2019-02-20T11:28:47.480Z,50
2019-02-20T11:29:47.431Z,50
2019-02-20T11:30:47.499Z,51
2019-02-20T11:31:47.438Z,50
2019-02-20T11:32:47.445Z,49
2019-02-20T11:33:47.485Z,49
2019-02-20T11:34:47.476Z,49
2019-02-20T11:35:47.477Z,50
2019-02-20T11:36:49.310Z,51
2019-02-20T11:37:47.458Z,51
2019-02-20T11:38:47.496Z,50
2019-02-20T11:39:47.502Z,51
2019-02-20T11:40:47.565Z,51
2019-02-20T11:41:47.560Z,51
2019-02-20T11:42:47.526Z,50
2019-02-20T11:43:47.565Z,51
2019-02-20T11:44:47.601Z,50
2019-02-20T11:45:47.560Z,50
2019-02-20T11:46:47.624Z,50
2019-02-20T11:47:47.600Z,50
2019-02-20T11:48:47.605Z,50
2019-02-20T11:49:47.624Z,50
2019-02-20T11:50:47.626Z,49
2019-02-20T11:51:47.649Z,49
2019-02-20T11:52:47.625Z,50
2019-02-20T11:53:47.652Z,51
2019-02-20T11:54:47.667Z,50
2019-02-20T11:55:47.673Z,51
2019-02-20T11:56:47.689Z,50
2019-02-20T11:57:47.676Z,49
2019-02-20T11:58:47.697Z,48
2019-02-20T11:59:47.713Z,49
2019-02-20T12:00:47.674Z,49
2019-02-20T12:01:47.744Z,49
2019-02-20T12:02:47.720Z,49
2019-02-20T12:03:47.705Z,48
2019-02-20T12:04:47.732Z,49
2019-02-20T12:05:47.751Z,49
2019-02-20T12:06:47.776Z,49
2019-02-20T12:07:47.751Z,49
2019-02-20T12:08:47.782Z,49
2019-02-20T12:09:47.785Z,48
2019-02-20T12:10:47.803Z,49
2019-02-20T12:11:47.871Z,49
2019-02-20T12:12:47.825Z,48
2019-02-20T12:13:47.823Z,50
2019-02-20T12:14:47.836Z,48
2019-02-20T12:15:47.884Z,48
2019-02-20T12:16:47.888Z,48
2019-02-20T12:17:47.883Z,48
2019-02-20T12:18:47.921Z,48
2019-02-20T12:19:47.867Z,48
2019-02-20T12:20:47.936Z,48
2019-02-20T12:21:47.878Z,48
2019-02-20T12:22:47.908Z,48
2019-02-20T12:23:47.890Z,49
2019-02-20T12:24:47.905Z,48
2019-02-20T12:25:47.885Z,47
2019-02-20T12:26:47.891Z,48
2019-02-20T12:27:47.951Z,47
2019-02-20T12:28:47.950Z,47
2019-02-20T12:29:47.947Z,48
2019-02-20T12:30:47.923Z,48
2019-02-20T12:31:52.388Z,47
2019-02-20T12:32:47.978Z,46
2019-02-20T12:33:47.987Z,46
2019-02-20T12:34:48.030Z,46
2019-02-20T12:35:48.024Z,47
2019-02-20T12:36:48.007Z,46
2019-02-20T12:37:48.011Z,46
2019-02-20T12:38:48.009Z,47
2019-02-20T12:39:48.012Z,46
2019-02-20T12:40:48.080Z,45
2019-02-20T12:41:48.060Z,45
2019-02-20T12:42:48.032Z,45
2019-02-20T12:43:48.050Z,46
2019-02-20T12:44:48.055Z,46
2019-02-20T12:45:49.042Z,46
2019-02-20T12:46:48.057Z,46
2019-02-20T12:47:48.070Z,46
2019-02-20T12:48:48.116Z,46
2019-02-20T12:49:48.082Z,46
2019-02-20T12:50:48.145Z,46
2019-02-20T12:51:48.339Z,45
2019-02-20T12:52:48.083Z,45
2019-02-20T12:53:48.082Z,45
2019-02-20T12:54:48.089Z,45
2019-02-20T12:55:48.109Z,46
2019-02-20T12:56:48.185Z,47
2019-02-20T12:57:48.161Z,47
2019-02-20T12:58:48.177Z,46
2019-02-20T12:59:48.138Z,45
2019-02-20T13:00:48.172Z,44
2019-02-20T13:01:48.181Z,43
2019-02-20T13:02:48.193Z,44
2019-02-20T13:03:48.177Z,43
2019-02-20T13:04:48.236Z,43
2019-02-20T13:05:48.204Z,45
2019-02-20T13:06:48.218Z,45
2019-02-20T13:07:48.218Z,44
2019-02-20T13:08:48.227Z,45
2019-02-20T13:09:50.031Z,46
2019-02-20T13:10:48.223Z,46
2019-02-20T13:11:48.243Z,45
2019-02-20T13:12:48.238Z,44
2019-02-20T13:13:49.084Z,43
2019-02-20T13:14:48.262Z,43
2019-02-20T13:15:48.278Z,43
2019-02-20T13:16:48.256Z,43
2019-02-20T13:17:48.275Z,43
2019-02-20T13:18:48.282Z,43
2019-02-20T13:19:48.321Z,44
2019-02-20T13:20:48.300Z,45
2019-02-20T13:21:48.307Z,44
2019-02-20T13:22:48.330Z,44
2019-02-20T13:23:48.350Z,44
2019-02-20T13:24:48.344Z,45
2019-02-20T13:25:48.371Z,44
2019-02-20T13:26:52.709Z,45
2019-02-20T13:27:48.375Z,45
2019-02-20T13:28:48.382Z,46
2019-02-20T13:29:48.416Z,45
2019-02-20T13:30:48.416Z,45
2019-02-20T13:31:48.414Z,45
2019-02-20T13:32:48.407Z,45
2019-02-20T13:33:48.417Z,45
2019-02-20T13:34:48.476Z,45
2019-02-20T13:35:48.450Z,46
2019-02-20T13:36:48.449Z,47
2019-02-20T13:37:48.478Z,47
2019-02-20T13:38:48.474Z,47
2019-02-20T13:39:48.538Z,47
2019-02-20T13:40:48.483Z,47
2019-02-20T13:41:48.478Z,48
2019-02-20T13:42:48.496Z,48
2019-02-20T13:43:48.477Z,48
2019-02-20T13:44:48.491Z,48
2019-02-20T13:45:48.501Z,49
2019-02-20T13:46:48.524Z,48
2019-02-20T13:47:48.518Z,48
2019-02-20T13:48:48.542Z,49
2019-02-20T13:49:48.504Z,49
2019-02-20T13:50:53.522Z,48
2019-02-20T13:51:48.604Z,48
2019-02-20T13:52:52.181Z,48
2019-02-20T13:53:48.607Z,47
2019-02-20T13:54:48.583Z,47
2019-02-20T13:55:48.617Z,47
2019-02-20T13:56:48.620Z,48
2019-02-20T13:57:48.607Z,47
2019-02-20T13:58:48.648Z,47
2019-02-20T13:59:48.661Z,47
2019-02-20T14:00:48.613Z,47
2019-02-20T14:01:48.642Z,47
2019-02-20T14:02:48.628Z,47
2019-02-20T14:03:48.637Z,47
2019-02-20T14:04:48.675Z,47
2019-02-20T14:05:48.696Z,47
2019-02-20T14:06:48.646Z,47
2019-02-20T14:07:48.651Z,47
2019-02-20T14:08:48.676Z,48
2019-02-20T14:09:48.700Z,48
2019-02-20T14:10:48.741Z,48
2019-02-20T14:11:48.745Z,48
2019-02-20T14:12:48.753Z,48
2019-02-20T14:13:48.720Z,48
2019-02-20T14:14:48.755Z,47
2019-02-20T14:15:48.732Z,47